Aviation Digital Data Service (ADDS)

Output produced by METARs form (1432 UTC 22 May 2015)
found at http://www.aviationweather.gov/adds/metars/
 
KUNV 221353Z 29012KT 10SM BKN090 12/05 A3005
KUNV 221253Z 29012KT 10SM SKC 11/06 A3004
KUNV 221153Z 27010KT 10SM SKC 10/05 A3003
KUNV 221053Z 28008KT 10SM SKC 07/05 A3003
KUNV 220953Z 21005KT 10SM SKC 06/04 A3000
KUNV 220935Z AUTO 20005KT 10SM CLR 06/04 A3000 RMK AO2 T00640040
KUNV 220915Z AUTO 21007KT 10SM CLR 07/04 A2999 RMK AO2 T00670042
KUNV 220855Z AUTO 21005KT 10SM CLR 06/04 A2999 RMK AO2 T00630042
KUNV 220835Z AUTO 20006KT 10SM CLR 07/04 A2998 RMK AO2 T00650042
KUNV 220815Z AUTO 22005KT 10SM CLR 07/04 A2998 RMK AO2 T00650041
KUNV 220755Z AUTO 22006KT 10SM CLR 07/04 A2998 RMK AO2 T00680042
KUNV 220735Z AUTO 21003KT 10SM CLR 06/04 A2997 RMK AO2 T00580044
KUNV 220715Z AUTO 20004KT 10SM CLR 06/05 A2997 RMK AO2 T00550048
KUNV 220655Z AUTO 20004KT 10SM CLR 06/05 A2997 RMK AO2 T00600052
KUNV 220635Z AUTO 18004KT 10SM CLR 06/05 A2997 RMK AO2 T00610050
KUNV 220615Z AUTO 24006KT 10SM 07/05 A2997 RMK AO2 T00720052
KUNV 220555Z AUTO 25007KT 10SM SCT110 08/06 A2997 RMK AO2 T00760055 10090 20076
KUNV 220535Z AUTO 26009KT 10SM BKN095 08/06 A2998 RMK AO2 T00800060
KUNV 220515Z AUTO 27007KT 10SM OVC095 09/06 A2998 RMK AO2 T00850061
KUNV 220455Z AUTO 26004KT 10SM SCT075 OVC085 09/06 A2998 RMK AO2 T00850063
KUNV 220435Z AUTO 27005KT 10SM BKN075 OVC085 09/06 A2998 RMK AO2 T00870064
KUNV 220415Z AUTO 26004KT 10SM SCT070 OVC085 09/07 A2997 RMK AO2 T00870066
KUNV 220355Z AUTO 21003KT 10SM -RA SCT055 BKN070 OVC095 09/07 A2997 RMK AO2 T00850072 401000074
KUNV 220335Z AUTO 00000KT 10SM DZ BKN050 OVC060 09/07 A2997 RMK AO2 T00850074
KUNV 220315Z AUTO 00000KT 10SM DZ OVC049 09/08 A2997 RMK AO2 T00850075
KUNV 220255Z AUTO 21003KT 10SM -DZ OVC047 09/08 A2997 RMK AO2 T00850077
KUNV 220235Z AUTO 00000KT 10SM DZ OVC043 09/08 A2998 RMK AO2 P0001 T00870076
KUNV 220215Z AUTO 00000KT 10SM DZ BKN041 OVC049 09/08 A2998 RMK AO2 T00870079
KUNV 220053Z 00000KT 3SM DZ SCT020 OVC055 09/08 A2996
KUNV 212353Z 00000KT 3SM BR SCT006 OVC055 09/08 A2994
KUNV 212253Z 00000KT 2SM BR OVC015 09/08 A2993
KUNV 212153Z 00000KT 2SM BR OVC015 09/08 A2993
KUNV 212053Z 00000KT 2SM BR OVC015 09/08 A2993
KUNV 211953Z 33003KT 3SM BR OVC015 09/07 A2993
KUNV 211925Z 00000KT 3SM BR OVC015 09/07 A2994
KUNV 211853Z 33003KT 6SM BR OVC019 10/06 A2995
KUNV 211753Z 00000KT 10SM OVC019 10/06 A2996
KUNV 211653Z 00000KT 10SM OVC021 10/05 A2998
KUNV 211453Z 00000KT 10SM SCT015 OVC032 08/05 A3001
KUNV 211353Z 05008KT 7SM SCT021 OVC038 08/06 A3002
KUNV 211253Z 06050KT 7SM -RA SCT035 OVC060 07/06 A3002
KUNV 211153Z 36005KT 5SM -RA BR OVC042 08/06 A3002
KUNV 211053Z 00000KT 6SM -RA SCT039 OVC065 08/06 A3002
KUNV 210953Z 00000KT 10SM OVC080 08/06 A3000
KUNV 210935Z AUTO 00000KT 10SM OVC080 08/06 A3001 RMK AO2 T00820058
KUNV 210915Z AUTO 00000KT 10SM BKN080 OVC095 08/06 A3001 RMK AO2 T00820056
KUNV 210855Z AUTO 00000KT 10SM OVC080 08/05 A3000 RMK AO2 T00800054
KUNV 210835Z AUTO 00000KT 10SM OVC090 08/05 A2999 RMK AO2 T00800053
KUNV 210815Z AUTO 33004KT 10SM SCT070 OVC090 09/04 A2999 RMK AO2 T00860044
KUNV 210755Z AUTO 29003KT 10SM SCT070 OVC090 08/05 A3000 RMK AO2 T00820050
KUNV 210735Z AUTO 31004KT 10SM OVC090 09/05 A3000 RMK AO2 T00860054
KUNV 210715Z AUTO 00000KT 10SM OVC090 08/05 A2999 RMK AO2 T00830052
KUNV 210655Z AUTO 00000KT 10SM OVC090 09/05 A2999 RMK AO2 T00860054
KUNV 210635Z AUTO 00000KT 10SM OVC090 09/05 A2999 RMK AO2 T00850050
KUNV 210615Z AUTO 00000KT 10SM OVC100 08/05 A2999 RMK AO2 T00800051
KUNV 210555Z AUTO 00000KT 10SM OVC110 08/05 A2999 RMK AO2 T00830046 10123 20081
KUNV 210535Z AUTO 00000KT 10SM OVC110 08/05 A3000 RMK AO2 T00830050
KUNV 210515Z AUTO 00000KT 10SM BKN120 08/05 A3001 RMK AO2 T00830048
KUNV 210455Z AUTO 00000KT 10SM BKN120 08/05 A3003 RMK AO2 T00830052
KUNV 210435Z AUTO 00000KT 10SM BKN120 09/05 A3003 RMK AO2 T00850052
KUNV 210415Z AUTO 00000KT 10SM SCT120 09/04 A3003 RMK AO2 T00870041
KUNV 210355Z AUTO 22003KT 10SM CLR 08/04 A3003 RMK AO2 T00830041 401450082
KUNV 210335Z AUTO 00000KT 10SM CLR 09/04 A3003 RMK AO2 T00890037
KUNV 210315Z AUTO 17003KT 10SM CLR 09/04 A3003 RMK AO2 T00860042
KUNV 210255Z AUTO 00000KT 10SM CLR 09/04 A3004 RMK AO2 T00900037
KUNV 210235Z AUTO 00000KT 10SM CLR 10/03 A3004 RMK AO2 T00970033